Timeline UpdatesTrip UpdatesNews PostsPvt PostsTravel TipsAdmin PostsConv PostsFollowed PostsChat RequestsBlog PostsPNR Posts

Disclaimer
Search
 
 
Mon Sep 15, 2014 15:00:13 ISTHomeTrainsΣChainsAtlasPNRForumGalleryNewsFAQTripsMembersLoginFeedback
No Recent News for this Train
Other Trains in the News **new
Latest...
.
Thu Jan 03, 2013 (07:52PM)
⇐ Return Journey: Train# 12137

12138/Punjab Mail

Time-Table HAS CHANGED.
Sep 03 (8:10PM)
Change Departure Station:
Change Arrival Station:
Post a Train Travel TipPost a Train Travel Tip **new
Post a Comment/Question/Picture/VideoPost a Comment/Question/Picture/Video
Inaugural Run
Sat Jun 01, 1912
Pantry/Catering
✓ Pantry Car Avbl
✓ Catering Avbl
RSA - Rake Sharing
No RSA.
Rake/Coach Composition
Loco-SLR(Ladies+ RMS)-GEN (Military)-HA1-A1-AB1-B1-B2-B3-B4-B5-S1-PC-S2-S3-S4-S5-S6-S7-S8-S9-S10-GEN-GEN-SLR
Loco
FZR-NDLS=> BGKT WDP-4/4B; NDLS-IGP=> GZB WAP-4; IGP-CSTM=> KYN WCAM-2P/3
News    PNR    Forum    Time-Table    Availability    Fare Chart    Map    Arr/Dep History    Trips    Gallery    ΣChains    X/O    Timeline    
Travel Time: 1h 36m    3 halts    Distance: 71 km    Avg Speed: 44 km/hr
Type: SuperFast
Zone: CR/Central
Departs @ 03:14 (Avg 10m late)
Platform# ???
SMTWTFS
Rohtak Junction/ROK 
Arrives @ 04:50 (Avg 12m late)
Platform# 3
SMTWTFS
New Delhi/NDLS 

3 halts. 16 intermediate Stations between Rohtak Junction and New Delhi

Show ALL intermediate Stations  Show Old Time-Table

#CodeStation NameX/OArrivesAvgDepartsAvgHaltPFDay#KmSpeedElevZoneAddress
1FZRFirozpur Cantt. Junction (5)  -21:40+211-316.477200mNRFirozpur Cantt 152001, Punjab
2FDKFaridkot (3)  22:05+1022:07+102m11-284.155202mNRFaridkot, Punjab
3KKPKot Kapura Junction (3)  22:21+1022:23+102m11-271.4650mNRKotkapura, Punjab
4GJUTGangsar Jaitu (3)X  22:38+1022:40+102m11-255.161207mNRJaitu, Punjab
5GNAGoneana Bhai Jagta (3)  22:54+1022:56+112m11-240.925206mNRGoniana, Punjab
6BTIBathinda Junction (6)X  23:25+123:35+210m41-228.679208mNRBathinda, Punjab
7MAURMaur  00:02+1100:04+112m12-193.175220mNRMaur Mandi, Punjab
8MSZMansa  00:19+1200:21+122m12-174.469222mNRMansa, Punjab
9BLZBudhlada  00:35+1400:37+142m12-158.371223mNRBudhlada, Punjab
10BRZBareta  00:50+1400:52+142m12-142.953223mNRBareta, Punjab
11JHLJakhal JunctionX  01:08+1301:10+132m--2-128.752225mNRJakhal, Haryana
12TUNTohana (2)X  01:24+1401:26+142m12-116.480232mNRTohana, Haryana
13NRWNarwana Junction (4)  01:45+1701:47+172m--2-91.062235mNRWay to Narwana, Haryana
14JINDJind Junction (3)X  02:21 02:20+1102:23+122 3m--2-57.170222mNR126102., Haryana
15ROK»Rohtak Junction (3)»  03:12+903:14+102m--20.081220mNRRohtak, Haryana
16BGZBahadurgarh  03:44+1603:46+162m--240.348220mNRBahadurgarh, Haryana
17SSBShakur Basti  04:11+1104:13+122m--260.235216mNRPitampura, Delhi NCT
18DKZDelhi KishanGanj (2)  04:25+1704:27+172m1267.210220mNRSarai Rohilla, Delhi NCT
19NDLS•New Delhi (16)•X04:50+1205:15+1225m3271.158215mNRNew Delhi, Delhi NCT
20FDBFaridabad (4)  05:44+1705:46+172m3299.261206mNRold Faridabad, Haryana
21KSVKosi Kalan (3)O  06:57+1506:59+192m12171.065189mNCRKosi Kalan, Uttar Pradesh
22MTJMathura Junction (10)X  07:37+1507:40+153m12212.473179mNCRMathura, Uttar Pradesh
23RKMRaja Ki Mandi (4)X  08:21+1408:23+142m22262.19170mNCRAgra, Uttar Pradesh
24AGCAgra Cantt. (6)X  08:50+708:55+85m12266.190174mNCRAgra, Uttar Pradesh
25DHODholpur Junction (3)X  09:30+1909:32+202m22318.770177mNCRDholpur, Rajasthan
26MRAMorena (3)X  09:55+2009:57+212m12345.575176mNCRMorena, Madhya Pradesh
27GWLGwalior Junction (4)  10:28+2810:33+325m12384.163214mNCRGwalior, Madhya Pradesh
28DBADabra (3)X  11:13+3111:15+322m12426.467 NCRDabra(District-Gwalior), Madhya Pradesh
29DAADatia (2)O  11:42+3511:44+352m12456.837264mNCRDatia, Madhya Pradesh
30JHSJhansi Junction (7)X  12:25+2012:33 12:35+248 10m32481.867259mNCRJhansi, Uttar Pradesh
31BABBabina (3)X  12:58+2913:00+302m12507.386285mNCRBabina, Uttar Pradesh
32LARLalitpur (3)  13:45+3213:47+322m12572.165373mNCRLalitpur, Uttar Pradesh
33BINABina Junction (5)  14:45+3814:50+385m22635.083414mWCRJn Pt - KATNI/GUNA/ BPL/JHS, Madhya Pradesh
34BAQGanj Basoda (4)  15:22 15:23+4315:24 15:25+432m22680.887 WCRVidisha, Madhya Pradesh
35BHSVidisha (3)X  15:52+5115:54+512m22720.157 WCRVidisha, Madhya Pradesh
36BPLBhopal Junction (6)X  16:50+4316:55+445m12773.638497mWCRBhopal, Madhya Pradesh
37HBJBhopal HabibGanj (5)  17:05+4717:07+472m42779.870496mWCRHabibGanj, Madhya Pradesh
38HBDHoshangabad (2)X  18:05+5918:07+592m22847.239308mWCRHoshangabad, Madhya Pradesh
39ETItarsi Junction (7)  18:35+5618:40+1:025m42865.384329mWCRItarsi 461111, Madhya Pradesh
40BPFBanapura (2)X  19:04+1:0819:06+1:082m12898.882314mWCRBanapura, Madhya Pradesh
41HDHarda (3)  19:37+1:0619:39+1:062m12941.176289mWCRHarda, Madhya Pradesh
42KKNKhirkiya (2)  20:04+1:0320:06+1:032m12972.749281mWCRSH 15, Madhya Pradesh
43KNWKhandwa Junction (5)X  21:40+3621:45+365m221048.886310mCRKhandwa, Madhya Pradesh
44BAUBurhanpur (2)  22:33+4322:35+432m121117.665269mCRBurhanpur, Madhya Pradesh
45BSLBhusaval Junction (8)X  23:25+4023:35+4210m321172.160208mCRBhusaval 425201, Maharashtra
46JLJalgaon Junction (4)  23:59+4600:01+472m221196.296213mCRJalgaon 425001, Maharashtra
47CSNChalisgaon Junction (3)X  00:59+5701:01+582m131288.883352mCRChalisgaon 424101, Maharashtra
48MMRManmad Junction (6)XO  01:50+1:0401:55+1:105m331356.387580mCRManmad 423104, Maharashtra
49NKNasik Road (3)X  02:45+1:1902:50+1:175m331429.143563mCRNashik 422101, Maharashtra
50DVLDevlali (3)X  02:58+1:1803:00+1:182m231434.832561mCRDist. Nashik 422401, Maharashtra
51IGPIgatpuri (4)04:25+4104:30+565m331479.745589mCRIgatpuri 422403, Maharashtra
52KYNKalyan Junction (8)X  06:20+1:1706:25+1:145m531561.57210mCRKalyan 421301, Maharashtra
53DRMumbai Dadar Central (8)  07:10 07:02+5107:15 07:05+525 3m631606.0177mCRMumbai 400014, Maharashtra
54CSTMMumbai CST (18)  07:35+1:13-1431614.6-10mCRMumbai 400001, Maharashtra
Scroll to Top
Scroll to Bottom